sensor_id;sensor_type;location;lat;lon;timestamp;temperature;humidity
48535;DHT22;34323;52.022;5.686;2022-12-24T00:01:08;14.60;99.90
48535;DHT22;34323;52.022;5.686;2022-12-24T00:03:36;14.20;99.90
48535;DHT22;34323;52.022;5.686;2022-12-24T00:06:06;14.40;99.90
48535;DHT22;34323;52.022;5.686;2022-12-24T00:08:32;14.40;99.90
48535;DHT22;34323;52.022;5.686;2022-12-24T00:10:58;14.40;99.90
48535;DHT22;34323;52.022;5.686;2022-12-24T00:13:24;14.30;99.90
48535;DHT22;34323;52.022;5.686;2022-12-24T00:15:50;14.50;99.90
48535;DHT22;34323;52.022;5.686;2022-12-24T00:18:15;14.70;99.90
48535;DHT22;34323;52.022;5.686;2022-12-24T00:20:44;14.90;99.90
48535;DHT22;34323;52.022;5.686;2022-12-24T00:23:09;15.00;99.90
48535;DHT22;34323;52.022;5.686;2022-12-24T00:25:35;14.90;99.90
48535;DHT22;34323;52.022;5.686;2022-12-24T00:28:00;14.50;99.90
48535;DHT22;34323;52.022;5.686;2022-12-24T00:30:26;14.50;99.90
48535;DHT22;34323;52.022;5.686;2022-12-24T00:32:51;14.50;99.90
48535;DHT22;34323;52.022;5.686;2022-12-24T00:35:17;14.50;99.90
48535;DHT22;34323;52.022;5.686;2022-12-24T00:37:46;14.20;99.90
48535;DHT22;34323;52.022;5.686;2022-12-24T00:40:12;14.30;99.90
48535;DHT22;34323;52.022;5.686;2022-12-24T00:42:37;14.40;99.90
48535;DHT22;34323;52.022;5.686;2022-12-24T00:45:03;14.70;99.90
48535;DHT22;34323;52.022;5.686;2022-12-24T00:47:29;14.90;99.90
48535;DHT22;34323;52.022;5.686;2022-12-24T00:49:54;14.70;99.90
48535;DHT22;34323;52.022;5.686;2022-12-24T00:52:20;14.90;99.90
48535;DHT22;34323;52.022;5.686;2022-12-24T00:54:45;14.80;99.90
48535;DHT22;34323;52.022;5.686;2022-12-24T00:57:11;14.60;99.90
48535;DHT22;34323;52.022;5.686;2022-12-24T00:59:36;14.40;99.90
48535;DHT22;34323;52.022;5.686;2022-12-24T01:02:02;14.40;99.90
48535;DHT22;34323;52.022;5.686;2022-12-24T01:04:28;13.90;99.90
48535;DHT22;34323;52.022;5.686;2022-12-24T01:07:12;13.70;99.90
48535;DHT22;34323;52.022;5.686;2022-12-24T01:09:37;14.00;99.90
48535;DHT22;34323;52.022;5.686;2022-12-24T01:12:03;14.10;99.90
48535;DHT22;34323;52.022;5.686;2022-12-24T01:14:29;14.50;99.90
48535;DHT22;34323;52.022;5.686;2022-12-24T01:16:54;14.70;99.90
48535;DHT22;34323;52.022;5.686;2022-12-24T01:19:20;14.60;99.90
48535;DHT22;34323;52.022;5.686;2022-12-24T01:21:45;14.70;99.90
48535;DHT22;34323;52.022;5.686;2022-12-24T01:24:14;14.50;99.90
48535;DHT22;34323;52.022;5.686;2022-12-24T01:26:40;14.40;99.90
48535;DHT22;34323;52.022;5.686;2022-12-24T01:29:06;14.30;99.90
48535;DHT22;34323;52.022;5.686;2022-12-24T01:31:32;14.30;99.90
48535;DHT22;34323;52.022;5.686;2022-12-24T01:33:57;14.40;99.90
48535;DHT22;34323;52.022;5.686;2022-12-24T01:36:23;14.40;99.90
48535;DHT22;34323;52.022;5.686;2022-12-24T01:38:48;14.40;99.90
48535;DHT22;34323;52.022;5.686;2022-12-24T01:41:19;14.40;99.90
48535;DHT22;34323;52.022;5.686;2022-12-24T01:44:23;14.50;99.90
48535;DHT22;34323;52.022;5.686;2022-12-24T01:47:12;14.20;99.90
48535;DHT22;34323;52.022;5.686;2022-12-24T01:49:41;14.10;99.90
48535;DHT22;34323;52.022;5.686;2022-12-24T01:52:18;14.30;99.90
48535;DHT22;34323;52.022;5.686;2022-12-24T01:54:51;14.00;99.90
48535;DHT22;34323;52.022;5.686;2022-12-24T01:57:29;13.80;99.90
48535;DHT22;34323;52.022;5.686;2022-12-24T01:59:57;14.00;99.90
48535;DHT22;34323;52.022;5.686;2022-12-24T02:02:26;13.90;99.90
48535;DHT22;34323;52.022;5.686;2022-12-24T02:05:02;14.00;99.90
48535;DHT22;34323;52.022;5.686;2022-12-24T02:07:29;14.00;99.90
48535;DHT22;34323;52.022;5.686;2022-12-24T02:09:57;13.90;99.90
48535;DHT22;34323;52.022;5.686;2022-12-24T02:12:25;13.80;99.90
48535;DHT22;34323;52.022;5.686;2022-12-24T02:14:51;13.70;99.90
48535;DHT22;34323;52.022;5.686;2022-12-24T02:28:07;13.80;99.90
48535;DHT22;34323;52.022;5.686;2022-12-24T02:30:45;13.70;99.90
48535;DHT22;34323;52.022;5.686;2022-12-24T02:33:32;13.60;99.90
48535;DHT22;34323;52.022;5.686;2022-12-24T02:36:10;13.80;99.90
48535;DHT22;34323;52.022;5.686;2022-12-24T02:38:46;13.40;99.90
48535;DHT22;34323;52.022;5.686;2022-12-24T02:41:20;13.30;99.90
48535;DHT22;34323;52.022;5.686;2022-12-24T02:43:48;13.50;99.90
48535;DHT22;34323;52.022;5.686;2022-12-24T02:46:19;13.70;99.90
48535;DHT22;34323;52.022;5.686;2022-12-24T02:48:47;14.00;99.90
48535;DHT22;34323;52.022;5.686;2022-12-24T02:51:14;14.00;99.90
48535;DHT22;34323;52.022;5.686;2022-12-24T02:53:40;13.50;99.90
48535;DHT22;34323;52.022;5.686;2022-12-24T02:59:21;13.70;99.90
48535;DHT22;34323;52.022;5.686;2022-12-24T03:02:23;13.90;99.90
48535;DHT22;34323;52.022;5.686;2022-12-24T03:05:21;13.60;99.90
48535;DHT22;34323;52.022;5.686;2022-12-24T03:10:35;13.40;99.90
48535;DHT22;34323;52.022;5.686;2022-12-24T03:13:15;13.70;99.90
48535;DHT22;34323;52.022;5.686;2022-12-24T03:15:42;13.90;99.90
48535;DHT22;34323;52.022;5.686;2022-12-24T03:18:10;13.80;99.90
48535;DHT22;34323;52.022;5.686;2022-12-24T03:20:39;13.90;99.90
48535;DHT22;34323;52.022;5.686;2022-12-24T03:23:06;13.70;99.90
48535;DHT22;34323;52.022;5.686;2022-12-24T03:25:34;13.70;99.90
48535;DHT22;34323;52.022;5.686;2022-12-24T03:28:04;13.60;99.90
48535;DHT22;34323;52.022;5.686;2022-12-24T03:30:31;13.50;99.90
48535;DHT22;34323;52.022;5.686;2022-12-24T03:32:57;13.90;99.90
48535;DHT22;34323;52.022;5.686;2022-12-24T03:35:22;14.00;99.90
48535;DHT22;34323;52.022;5.686;2022-12-24T03:37:48;14.20;99.90
48535;DHT22;34323;52.022;5.686;2022-12-24T03:40:13;14.00;99.90
48535;DHT22;34323;52.022;5.686;2022-12-24T03:42:39;13.90;99.90
48535;DHT22;34323;52.022;5.686;2022-12-24T03:45:05;13.80;99.90
48535;DHT22;34323;52.022;5.686;2022-12-24T03:47:31;13.80;99.90
48535;DHT22;34323;52.022;5.686;2022-12-24T03:49:57;13.90;99.90
48535;DHT22;34323;52.022;5.686;2022-12-24T03:52:22;13.90;99.90
48535;DHT22;34323;52.022;5.686;2022-12-24T03:54:48;14.10;99.90
48535;DHT22;34323;52.022;5.686;2022-12-24T03:57:13;13.70;99.90
48535;DHT22;34323;52.022;5.686;2022-12-24T03:59:39;13.50;99.90
48535;DHT22;34323;52.022;5.686;2022-12-24T04:02:05;13.70;99.90
48535;DHT22;34323;52.022;5.686;2022-12-24T04:04:30;14.00;99.90
48535;DHT22;34323;52.022;5.686;2022-12-24T04:06:58;14.10;99.90
48535;DHT22;34323;52.022;5.686;2022-12-24T04:09:24;14.10;99.90
48535;DHT22;34323;52.022;5.686;2022-12-24T04:11:49;14.30;99.90
48535;DHT22;34323;52.022;5.686;2022-12-24T04:14:15;14.40;99.90
48535;DHT22;34323;52.022;5.686;2022-12-24T04:16:40;14.20;99.90
48535;DHT22;34323;52.022;5.686;2022-12-24T04:19:06;14.20;99.90
48535;DHT22;34323;52.022;5.686;2022-12-24T04:21:31;14.20;99.90
48535;DHT22;34323;52.022;5.686;2022-12-24T04:23:57;14.40;99.90
48535;DHT22;34323;52.022;5.686;2022-12-24T04:26:22;14.30;99.90
48535;DHT22;34323;52.022;5.686;2022-12-24T04:28:48;14.40;99.90
48535;DHT22;34323;52.022;5.686;2022-12-24T04:31:16;14.60;99.90
48535;DHT22;34323;52.022;5.686;2022-12-24T04:33:42;14.50;99.90
48535;DHT22;34323;52.022;5.686;2022-12-24T04:36:09;14.50;99.90
48535;DHT22;34323;52.022;5.686;2022-12-24T04:38:36;14.20;99.90
48535;DHT22;34323;52.022;5.686;2022-12-24T04:41:04;14.40;99.90
48535;DHT22;34323;52.022;5.686;2022-12-24T04:43:31;14.50;99.90
48535;DHT22;34323;52.022;5.686;2022-12-24T04:46:12;14.60;99.90
48535;DHT22;34323;52.022;5.686;2022-12-24T04:48:47;14.50;99.90
48535;DHT22;34323;52.022;5.686;2022-12-24T04:51:13;14.80;99.90
48535;DHT22;34323;52.022;5.686;2022-12-24T04:53:40;14.70;99.90
48535;DHT22;34323;52.022;5.686;2022-12-24T04:56:14;14.50;99.90
48535;DHT22;34323;52.022;5.686;2022-12-24T04:58:40;14.60;99.90
48535;DHT22;34323;52.022;5.686;2022-12-24T05:01:07;14.70;99.90
48535;DHT22;34323;52.022;5.686;2022-12-24T05:03:34;14.10;99.90
48535;DHT22;34323;52.022;5.686;2022-12-24T05:06:05;14.00;99.90
48535;DHT22;34323;52.022;5.686;2022-12-24T05:08:30;14.00;99.90
48535;DHT22;34323;52.022;5.686;2022-12-24T05:10:57;14.10;99.90
48535;DHT22;34323;52.022;5.686;2022-12-24T05:13:23;14.40;99.90
48535;DHT22;34323;52.022;5.686;2022-12-24T05:15:49;14.60;99.90
48535;DHT22;34323;52.022;5.686;2022-12-24T05:18:15;14.60;99.90
48535;DHT22;34323;52.022;5.686;2022-12-24T05:20:41;14.20;99.90
48535;DHT22;34323;52.022;5.686;2022-12-24T05:23:09;14.40;99.90
48535;DHT22;34323;52.022;5.686;2022-12-24T05:25:57;14.50;99.90
48535;DHT22;34323;52.022;5.686;2022-12-24T05:28:42;14.60;99.90
48535;DHT22;34323;52.022;5.686;2022-12-24T05:31:08;14.50;99.90
48535;DHT22;34323;52.022;5.686;2022-12-24T05:33:33;14.70;99.90
48535;DHT22;34323;52.022;5.686;2022-12-24T05:35:59;14.60;99.90
48535;DHT22;34323;52.022;5.686;2022-12-24T05:38:24;14.30;99.90
48535;DHT22;34323;52.022;5.686;2022-12-24T05:40:50;14.60;99.90
48535;DHT22;34323;52.022;5.686;2022-12-24T05:43:15;14.60;99.90
48535;DHT22;34323;52.022;5.686;2022-12-24T05:45:41;14.60;99.90
48535;DHT22;34323;52.022;5.686;2022-12-24T05:48:07;14.70;99.90
48535;DHT22;34323;52.022;5.686;2022-12-24T05:50:33;15.00;99.90
48535;DHT22;34323;52.022;5.686;2022-12-24T05:52:58;14.80;99.90
48535;DHT22;34323;52.022;5.686;2022-12-24T05:55:25;14.80;99.90
48535;DHT22;34323;52.022;5.686;2022-12-24T05:57:50;14.50;99.90
48535;DHT22;34323;52.022;5.686;2022-12-24T06:00:16;14.30;99.90
48535;DHT22;34323;52.022;5.686;2022-12-24T06:02:42;14.40;99.90
48535;DHT22;34323;52.022;5.686;2022-12-24T06:05:07;14.60;99.90
48535;DHT22;34323;52.022;5.686;2022-12-24T06:07:33;14.50;99.90
48535;DHT22;34323;52.022;5.686;2022-12-24T06:09:59;14.40;99.90
48535;DHT22;34323;52.022;5.686;2022-12-24T06:12:24;14.40;99.90
48535;DHT22;34323;52.022;5.686;2022-12-24T06:14:50;14.50;99.90
48535;DHT22;34323;52.022;5.686;2022-12-24T06:17:15;14.50;99.90
48535;DHT22;34323;52.022;5.686;2022-12-24T06:19:41;14.50;99.90
48535;DHT22;34323;52.022;5.686;2022-12-24T06:22:07;14.80;99.90
48535;DHT22;34323;52.022;5.686;2022-12-24T06:24:32;14.80;99.90
48535;DHT22;34323;52.022;5.686;2022-12-24T06:26:58;14.90;99.90
48535;DHT22;34323;52.022;5.686;2022-12-24T06:29:23;15.00;99.90
48535;DHT22;34323;52.022;5.686;2022-12-24T06:31:49;14.60;99.90
48535;DHT22;34323;52.022;5.686;2022-12-24T06:34:14;14.60;99.90
48535;DHT22;34323;52.022;5.686;2022-12-24T06:36:40;14.50;99.90
48535;DHT22;34323;52.022;5.686;2022-12-24T06:39:05;14.70;99.90
48535;DHT22;34323;52.022;5.686;2022-12-24T06:41:31;14.70;99.90
48535;DHT22;34323;52.022;5.686;2022-12-24T06:43:56;14.70;99.90
48535;DHT22;34323;52.022;5.686;2022-12-24T06:46:22;14.80;99.90
48535;DHT22;34323;52.022;5.686;2022-12-24T06:48:48;14.40;99.90
48535;DHT22;34323;52.022;5.686;2022-12-24T06:51:15;14.40;99.90
48535;DHT22;34323;52.022;5.686;2022-12-24T06:53:40;14.60;99.90
48535;DHT22;34323;52.022;5.686;2022-12-24T06:56:08;14.50;99.90
48535;DHT22;34323;52.022;5.686;2022-12-24T06:58:35;14.90;99.90
48535;DHT22;34323;52.022;5.686;2022-12-24T07:01:05;15.30;99.90
48535;DHT22;34323;52.022;5.686;2022-12-24T07:03:31;15.40;99.90
48535;DHT22;34323;52.022;5.686;2022-12-24T07:05:57;15.40;99.90
48535;DHT22;34323;52.022;5.686;2022-12-24T07:08:23;15.30;99.90
48535;DHT22;34323;52.022;5.686;2022-12-24T07:10:49;15.20;99.90
48535;DHT22;34323;52.022;5.686;2022-12-24T07:13:15;14.80;99.90
48535;DHT22;34323;52.022;5.686;2022-12-24T07:15:41;14.50;99.90
48535;DHT22;34323;52.022;5.686;2022-12-24T07:18:07;14.40;99.90
48535;DHT22;34323;52.022;5.686;2022-12-24T07:20:32;14.50;99.90
48535;DHT22;34323;52.022;5.686;2022-12-24T07:22:58;14.70;99.90
48535;DHT22;34323;52.022;5.686;2022-12-24T07:25:23;14.90;99.90
48535;DHT22;34323;52.022;5.686;2022-12-24T07:27:49;14.80;99.90
48535;DHT22;34323;52.022;5.686;2022-12-24T07:30:14;14.80;99.90
48535;DHT22;34323;52.022;5.686;2022-12-24T07:32:40;14.70;99.90
48535;DHT22;34323;52.022;5.686;2022-12-24T07:35:06;14.60;99.90
48535;DHT22;34323;52.022;5.686;2022-12-24T07:37:31;14.50;99.90
48535;DHT22;34323;52.022;5.686;2022-12-24T07:39:57;14.20;99.90
48535;DHT22;34323;52.022;5.686;2022-12-24T07:42:23;14.40;99.90
48535;DHT22;34323;52.022;5.686;2022-12-24T07:44:48;14.60;99.90
48535;DHT22;34323;52.022;5.686;2022-12-24T07:47:14;14.80;99.90
48535;DHT22;34323;52.022;5.686;2022-12-24T07:49:39;14.90;99.90
48535;DHT22;34323;52.022;5.686;2022-12-24T07:52:05;14.80;99.90
48535;DHT22;34323;52.022;5.686;2022-12-24T07:54:30;14.80;99.90
48535;DHT22;34323;52.022;5.686;2022-12-24T07:56:56;15.00;99.90
48535;DHT22;34323;52.022;5.686;2022-12-24T07:59:21;14.90;99.90
48535;DHT22;34323;52.022;5.686;2022-12-24T08:01:47;15.00;99.90
48535;DHT22;34323;52.022;5.686;2022-12-24T08:04:13;14.60;99.90
48535;DHT22;34323;52.022;5.686;2022-12-24T08:06:39;14.20;99.90
48535;DHT22;34323;52.022;5.686;2022-12-24T08:09:04;14.30;99.90
48535;DHT22;34323;52.022;5.686;2022-12-24T08:11:30;14.50;99.90
48535;DHT22;34323;52.022;5.686;2022-12-24T08:13:55;14.40;99.90
48535;DHT22;34323;52.022;5.686;2022-12-24T08:16:21;14.60;99.90
48535;DHT22;34323;52.022;5.686;2022-12-24T08:18:47;14.50;99.90
48535;DHT22;34323;52.022;5.686;2022-12-24T08:21:12;14.50;99.90
48535;DHT22;34323;52.022;5.686;2022-12-24T08:23:38;14.40;99.90
48535;DHT22;34323;52.022;5.686;2022-12-24T08:26:06;14.70;99.90
48535;DHT22;34323;52.022;5.686;2022-12-24T08:28:32;14.70;99.90
48535;DHT22;34323;52.022;5.686;2022-12-24T08:30:58;14.60;99.90
48535;DHT22;34323;52.022;5.686;2022-12-24T08:33:23;14.70;99.90
48535;DHT22;34323;52.022;5.686;2022-12-24T08:35:51;14.60;99.90
48535;DHT22;34323;52.022;5.686;2022-12-24T08:38:17;14.40;99.90
48535;DHT22;34323;52.022;5.686;2022-12-24T08:40:44;14.30;99.90
48535;DHT22;34323;52.022;5.686;2022-12-24T08:43:11;13.90;99.90
48535;DHT22;34323;52.022;5.686;2022-12-24T08:45:38;14.00;99.90
48535;DHT22;34323;52.022;5.686;2022-12-24T08:48:05;13.80;99.90
48535;DHT22;34323;52.022;5.686;2022-12-24T08:50:30;13.80;99.90
48535;DHT22;34323;52.022;5.686;2022-12-24T08:52:56;14.10;99.90
48535;DHT22;34323;52.022;5.686;2022-12-24T08:55:21;14.60;99.90
48535;DHT22;34323;52.022;5.686;2022-12-24T08:57:47;14.90;99.90
48535;DHT22;34323;52.022;5.686;2022-12-24T09:00:13;14.80;99.90
48535;DHT22;34323;52.022;5.686;2022-12-24T09:02:39;15.00;99.90
48535;DHT22;34323;52.022;5.686;2022-12-24T09:05:04;15.10;99.90
48535;DHT22;34323;52.022;5.686;2022-12-24T09:07:30;14.50;99.90
48535;DHT22;34323;52.022;5.686;2022-12-24T09:09:56;14.50;99.90
48535;DHT22;34323;52.022;5.686;2022-12-24T09:12:21;14.50;99.90
48535;DHT22;34323;52.022;5.686;2022-12-24T09:14:49;14.30;99.90
48535;DHT22;34323;52.022;5.686;2022-12-24T09:17:14;14.20;99.90
48535;DHT22;34323;52.022;5.686;2022-12-24T09:19:40;14.40;99.90
48535;DHT22;34323;52.022;5.686;2022-12-24T09:22:05;14.60;99.90
48535;DHT22;34323;52.022;5.686;2022-12-24T09:24:31;14.60;99.90
48535;DHT22;34323;52.022;5.686;2022-12-24T09:26:57;14.50;99.90
48535;DHT22;34323;52.022;5.686;2022-12-24T09:29:23;14.60;99.90
48535;DHT22;34323;52.022;5.686;2022-12-24T09:31:49;14.70;99.90
48535;DHT22;34323;52.022;5.686;2022-12-24T09:34:15;14.80;99.90
48535;DHT22;34323;52.022;5.686;2022-12-24T09:36:40;14.90;99.90
48535;DHT22;34323;52.022;5.686;2022-12-24T09:39:06;15.10;99.90
48535;DHT22;34323;52.022;5.686;2022-12-24T09:46:51;14.80;99.90
48535;DHT22;34323;52.022;5.686;2022-12-24T09:49:24;14.80;99.90
48535;DHT22;34323;52.022;5.686;2022-12-24T09:51:59;15.00;99.90
48535;DHT22;34323;52.022;5.686;2022-12-24T09:54:36;15.10;99.90
48535;DHT22;34323;52.022;5.686;2022-12-24T09:57:16;15.00;99.90
48535;DHT22;34323;52.022;5.686;2022-12-24T09:59:46;14.90;99.90
48535;DHT22;34323;52.022;5.686;2022-12-24T10:02:14;14.80;99.90
48535;DHT22;34323;52.022;5.686;2022-12-24T10:04:42;14.90;99.90
48535;DHT22;34323;52.022;5.686;2022-12-24T10:10:13;15.30;99.90
48535;DHT22;34323;52.022;5.686;2022-12-24T10:13:00;15.30;99.90
48535;DHT22;34323;52.022;5.686;2022-12-24T10:15:39;15.20;99.90
48535;DHT22;34323;52.022;5.686;2022-12-24T10:23:48;15.50;99.90
48535;DHT22;34323;52.022;5.686;2022-12-24T10:26:47;15.50;99.90
48535;DHT22;34323;52.022;5.686;2022-12-24T10:29:17;15.70;99.90
48535;DHT22;34323;52.022;5.686;2022-12-24T10:34:30;16.10;99.90
48535;DHT22;34323;52.022;5.686;2022-12-24T10:36:58;16.20;99.90
48535;DHT22;34323;52.022;5.686;2022-12-24T10:39:27;15.80;99.90
48535;DHT22;34323;52.022;5.686;2022-12-24T10:41:54;15.80;99.90
48535;DHT22;34323;52.022;5.686;2022-12-24T10:44:25;15.60;99.90
48535;DHT22;34323;52.022;5.686;2022-12-24T10:46:51;15.40;99.90
48535;DHT22;34323;52.022;5.686;2022-12-24T10:49:28;15.10;99.90
48535;DHT22;34323;52.022;5.686;2022-12-24T10:52:05;15.30;99.90
48535;DHT22;34323;52.022;5.686;2022-12-24T10:54:35;15.60;99.90
48535;DHT22;34323;52.022;5.686;2022-12-24T10:57:05;15.90;99.90
48535;DHT22;34323;52.022;5.686;2022-12-24T10:59:41;15.70;99.90
48535;DHT22;34323;52.022;5.686;2022-12-24T11:04:50;15.60;99.90
48535;DHT22;34323;52.022;5.686;2022-12-24T11:07:20;15.50;99.90
48535;DHT22;34323;52.022;5.686;2022-12-24T11:10:01;15.40;99.90
48535;DHT22;34323;52.022;5.686;2022-12-24T11:12:33;15.70;99.90
48535;DHT22;34323;52.022;5.686;2022-12-24T11:15:15;15.50;99.90
48535;DHT22;34323;52.022;5.686;2022-12-24T11:17:51;15.70;99.90
48535;DHT22;34323;52.022;5.686;2022-12-24T11:20:26;15.90;99.90
48535;DHT22;34323;52.022;5.686;2022-12-24T11:22:53;16.30;99.90
48535;DHT22;34323;52.022;5.686;2022-12-24T11:25:37;16.20;99.90
48535;DHT22;34323;52.022;5.686;2022-12-24T11:28:27;16.00;99.90
48535;DHT22;34323;52.022;5.686;2022-12-24T11:33:24;16.20;99.90
48535;DHT22;34323;52.022;5.686;2022-12-24T11:35:53;16.40;99.90
48535;DHT22;34323;52.022;5.686;2022-12-24T11:38:29;16.30;99.90
48535;DHT22;34323;52.022;5.686;2022-12-24T11:43:27;16.90;99.90
48535;DHT22;34323;52.022;5.686;2022-12-24T11:46:17;16.90;99.90
48535;DHT22;34323;52.022;5.686;2022-12-24T11:48:44;17.00;99.90
48535;DHT22;34323;52.022;5.686;2022-12-24T11:51:25;16.70;99.90
48535;DHT22;34323;52.022;5.686;2022-12-24T11:54:13;17.00;99.90
48535;DHT22;34323;52.022;5.686;2022-12-24T11:56:43;17.10;99.90
48535;DHT22;34323;52.022;5.686;2022-12-24T12:01:57;16.30;99.90
48535;DHT22;34323;52.022;5.686;2022-12-24T12:04:30;16.30;99.90
48535;DHT22;34323;52.022;5.686;2022-12-24T12:07:05;16.40;99.90
48535;DHT22;34323;52.022;5.686;2022-12-24T12:09:33;16.70;99.90
48535;DHT22;34323;52.022;5.686;2022-12-24T12:12:08;16.40;99.90
48535;DHT22;34323;52.022;5.686;2022-12-24T12:14:47;15.50;99.90
48535;DHT22;34323;52.022;5.686;2022-12-24T12:17:35;15.20;99.90
48535;DHT22;34323;52.022;5.686;2022-12-24T12:20:06;15.50;99.90
48535;DHT22;34323;52.022;5.686;2022-12-24T12:25:56;16.00;99.90
48535;DHT22;34323;52.022;5.686;2022-12-24T12:33:43;16.70;99.90
48535;DHT22;34323;52.022;5.686;2022-12-24T12:36:11;16.60;99.90
48535;DHT22;34323;52.022;5.686;2022-12-24T12:38:38;16.50;99.90
48535;DHT22;34323;52.022;5.686;2022-12-24T12:49:40;16.40;99.90
48535;DHT22;34323;52.022;5.686;2022-12-24T12:52:19;16.30;99.90
48535;DHT22;34323;52.022;5.686;2022-12-24T12:55:00;16.30;99.90
48535;DHT22;34323;52.022;5.686;2022-12-24T12:57:33;16.40;99.90
48535;DHT22;34323;52.022;5.686;2022-12-24T13:00:09;16.50;99.90
48535;DHT22;34323;52.022;5.686;2022-12-24T13:25:37;15.50;99.90
48535;DHT22;34323;52.022;5.686;2022-12-24T13:31:04;15.70;99.90
48535;DHT22;34323;52.022;5.686;2022-12-24T13:36:05;15.80;99.90
48535;DHT22;34323;52.022;5.686;2022-12-24T13:38:32;15.90;99.90
48535;DHT22;34323;52.022;5.686;2022-12-24T13:49:38;16.30;99.90
48535;DHT22;34323;52.022;5.686;2022-12-24T13:55:04;16.40;99.90
48535;DHT22;34323;52.022;5.686;2022-12-24T13:57:42;16.10;99.90
48535;DHT22;34323;52.022;5.686;2022-12-24T14:03:04;16.10;99.90
48535;DHT22;34323;52.022;5.686;2022-12-24T14:08:24;16.40;99.90
48535;DHT22;34323;52.022;5.686;2022-12-24T14:11:16;16.40;99.90
48535;DHT22;34323;52.022;5.686;2022-12-24T14:16:28;16.90;99.90
48535;DHT22;34323;52.022;5.686;2022-12-24T14:19:00;16.40;99.90
48535;DHT22;34323;52.022;5.686;2022-12-24T14:21:41;16.30;99.90
48535;DHT22;34323;52.022;5.686;2022-12-24T14:24:21;16.20;99.90
48535;DHT22;34323;52.022;5.686;2022-12-24T14:27:13;16.50;99.90
48535;DHT22;34323;52.022;5.686;2022-12-24T14:29:51;15.90;99.90
48535;DHT22;34323;52.022;5.686;2022-12-24T14:32:19;16.00;99.90
48535;DHT22;34323;52.022;5.686;2022-12-24T14:34:44;16.20;99.90
48535;DHT22;34323;52.022;5.686;2022-12-24T14:37:12;16.30;99.90
48535;DHT22;34323;52.022;5.686;2022-12-24T14:39:46;16.40;99.90
48535;DHT22;34323;52.022;5.686;2022-12-24T14:42:39;16.00;99.90
48535;DHT22;34323;52.022;5.686;2022-12-24T14:45:24;15.50;99.90
48535;DHT22;34323;52.022;5.686;2022-12-24T14:51:18;16.00;99.90
48535;DHT22;34323;52.022;5.686;2022-12-24T14:56:33;16.20;99.90
48535;DHT22;34323;52.022;5.686;2022-12-24T14:58:59;16.00;99.90
48535;DHT22;34323;52.022;5.686;2022-12-24T15:01:32;16.00;99.90
48535;DHT22;34323;52.022;5.686;2022-12-24T15:04:04;15.90;99.90
48535;DHT22;34323;52.022;5.686;2022-12-24T15:06:45;15.50;99.90
48535;DHT22;34323;52.022;5.686;2022-12-24T15:09:24;15.40;99.90
48535;DHT22;34323;52.022;5.686;2022-12-24T15:11:53;15.40;99.90
48535;DHT22;34323;52.022;5.686;2022-12-24T15:14:20;15.30;99.90
48535;DHT22;34323;52.022;5.686;2022-12-24T15:17:03;15.30;99.90
48535;DHT22;34323;52.022;5.686;2022-12-24T15:19:38;15.70;99.90
48535;DHT22;34323;52.022;5.686;2022-12-24T15:22:11;16.00;99.90
48535;DHT22;34323;52.022;5.686;2022-12-24T15:24:45;16.00;99.90
48535;DHT22;34323;52.022;5.686;2022-12-24T15:27:15;16.10;99.90
48535;DHT22;34323;52.022;5.686;2022-12-24T15:29:43;16.20;99.90
48535;DHT22;34323;52.022;5.686;2022-12-24T15:32:12;16.40;99.90
48535;DHT22;34323;52.022;5.686;2022-12-24T15:34:46;16.30;99.90
48535;DHT22;34323;52.022;5.686;2022-12-24T15:37:27;16.60;99.90
48535;DHT22;34323;52.022;5.686;2022-12-24T15:40:05;16.60;99.90
48535;DHT22;34323;52.022;5.686;2022-12-24T15:42:32;16.50;99.90
48535;DHT22;34323;52.022;5.686;2022-12-24T15:45:02;16.40;99.90
48535;DHT22;34323;52.022;5.686;2022-12-24T15:47:42;16.40;99.90
48535;DHT22;34323;52.022;5.686;2022-12-24T15:50:18;16.30;99.90
48535;DHT22;34323;52.022;5.686;2022-12-24T15:52:48;16.10;99.90
48535;DHT22;34323;52.022;5.686;2022-12-24T15:55:43;16.30;99.90
48535;DHT22;34323;52.022;5.686;2022-12-24T15:58:22;16.40;99.90
48535;DHT22;34323;52.022;5.686;2022-12-24T16:06:16;16.20;99.90
48535;DHT22;34323;52.022;5.686;2022-12-24T16:08:42;16.30;99.90
48535;DHT22;34323;52.022;5.686;2022-12-24T16:13:59;15.90;99.90
48535;DHT22;34323;52.022;5.686;2022-12-24T16:16:40;15.90;99.90
48535;DHT22;34323;52.022;5.686;2022-12-24T16:19:20;15.80;99.90
48535;DHT22;34323;52.022;5.686;2022-12-24T16:21:51;15.70;99.90
48535;DHT22;34323;52.022;5.686;2022-12-24T16:24:19;15.60;99.90
48535;DHT22;34323;52.022;5.686;2022-12-24T16:26:45;15.30;99.90
48535;DHT22;34323;52.022;5.686;2022-12-24T16:29:13;15.10;99.90
48535;DHT22;34323;52.022;5.686;2022-12-24T16:31:44;15.00;99.90
48535;DHT22;34323;52.022;5.686;2022-12-24T16:34:14;14.80;99.90
48535;DHT22;34323;52.022;5.686;2022-12-24T16:36:41;14.70;99.90
48535;DHT22;34323;52.022;5.686;2022-12-24T16:39:16;14.40;99.90
48535;DHT22;34323;52.022;5.686;2022-12-24T16:41:56;14.20;99.90
48535;DHT22;34323;52.022;5.686;2022-12-24T16:44:40;14.00;99.90
48535;DHT22;34323;52.022;5.686;2022-12-24T16:47:10;13.90;99.90
48535;DHT22;34323;52.022;5.686;2022-12-24T16:49:37;13.90;99.90
48535;DHT22;34323;52.022;5.686;2022-12-24T16:52:05;13.90;99.90
48535;DHT22;34323;52.022;5.686;2022-12-24T16:54:30;13.60;99.90
48535;DHT22;34323;52.022;5.686;2022-12-24T16:56:56;13.60;99.90
48535;DHT22;34323;52.022;5.686;2022-12-24T16:59:22;13.40;99.90
48535;DHT22;34323;52.022;5.686;2022-12-24T17:01:49;13.30;99.90
48535;DHT22;34323;52.022;5.686;2022-12-24T17:04:16;13.20;99.90
48535;DHT22;34323;52.022;5.686;2022-12-24T17:06:42;13.00;99.90
48535;DHT22;34323;52.022;5.686;2022-12-24T17:09:09;12.80;99.90
48535;DHT22;34323;52.022;5.686;2022-12-24T17:11:35;12.70;99.90
48535;DHT22;34323;52.022;5.686;2022-12-24T17:14:02;12.40;99.90
48535;DHT22;34323;52.022;5.686;2022-12-24T17:16:28;12.30;99.90
48535;DHT22;34323;52.022;5.686;2022-12-24T17:18:53;12.40;99.90
48535;DHT22;34323;52.022;5.686;2022-12-24T17:21:19;12.40;99.90
48535;DHT22;34323;52.022;5.686;2022-12-24T17:23:45;12.40;99.90
48535;DHT22;34323;52.022;5.686;2022-12-24T17:26:11;12.30;99.90
48535;DHT22;34323;52.022;5.686;2022-12-24T17:28:37;12.20;99.90
48535;DHT22;34323;52.022;5.686;2022-12-24T17:31:07;12.10;99.90
48535;DHT22;34323;52.022;5.686;2022-12-24T17:33:34;12.20;99.90
48535;DHT22;34323;52.022;5.686;2022-12-24T17:35:59;12.10;99.90
48535;DHT22;34323;52.022;5.686;2022-12-24T17:38:25;12.00;99.90
48535;DHT22;34323;52.022;5.686;2022-12-24T17:40:51;12.00;99.90
48535;DHT22;34323;52.022;5.686;2022-12-24T17:43:16;12.10;99.90
48535;DHT22;34323;52.022;5.686;2022-12-24T17:45:42;12.10;99.90
48535;DHT22;34323;52.022;5.686;2022-12-24T17:48:08;12.10;99.90